sensor_id;sensor_type;location;lat;lon;timestamp;P1;durP1;ratioP1;P2;durP2;ratioP2
48052;SDS011;33824;51.600;5.718;2023-02-28T00:00:27;9.25;;;5.10;;
48052;SDS011;33824;51.600;5.718;2023-02-28T00:03:12;9.57;;;5.32;;
48052;SDS011;33824;51.600;5.718;2023-02-28T00:05:38;9.75;;;4.78;;
48052;SDS011;33824;51.600;5.718;2023-02-28T00:08:05;11.38;;;4.90;;
48052;SDS011;33824;51.600;5.718;2023-02-28T00:10:31;10.20;;;4.65;;
48052;SDS011;33824;51.600;5.718;2023-02-28T00:13:01;9.82;;;4.32;;
48052;SDS011;33824;51.600;5.718;2023-02-28T00:15:29;11.77;;;4.70;;
48052;SDS011;33824;51.600;5.718;2023-02-28T00:17:54;9.63;;;4.72;;
48052;SDS011;33824;51.600;5.718;2023-02-28T00:20:20;8.75;;;4.68;;
48052;SDS011;33824;51.600;5.718;2023-02-28T00:22:46;8.60;;;4.90;;
48052;SDS011;33824;51.600;5.718;2023-02-28T00:25:16;10.50;;;5.35;;
48052;SDS011;33824;51.600;5.718;2023-02-28T00:27:43;9.43;;;5.10;;
48052;SDS011;33824;51.600;5.718;2023-02-28T00:30:11;10.57;;;4.60;;
48052;SDS011;33824;51.600;5.718;2023-02-28T00:32:38;13.10;;;4.75;;
48052;SDS011;33824;51.600;5.718;2023-02-28T00:35:04;9.82;;;4.38;;
48052;SDS011;33824;51.600;5.718;2023-02-28T00:37:31;11.02;;;5.15;;
48052;SDS011;33824;51.600;5.718;2023-02-28T00:39:57;10.25;;;5.22;;
48052;SDS011;33824;51.600;5.718;2023-02-28T00:42:23;13.10;;;5.82;;
48052;SDS011;33824;51.600;5.718;2023-02-28T00:44:49;7.85;;;5.10;;
48052;SDS011;33824;51.600;5.718;2023-02-28T00:47:15;10.10;;;5.10;;
48052;SDS011;33824;51.600;5.718;2023-02-28T00:49:41;10.52;;;5.32;;
48052;SDS011;33824;51.600;5.718;2023-02-28T00:52:06;11.57;;;4.97;;
48052;SDS011;33824;51.600;5.718;2023-02-28T00:54:32;14.38;;;5.78;;
48052;SDS011;33824;51.600;5.718;2023-02-28T00:56:58;8.70;;;4.63;;
48052;SDS011;33824;51.600;5.718;2023-02-28T00:59:23;8.88;;;5.18;;
48052;SDS011;33824;51.600;5.718;2023-02-28T01:01:49;9.05;;;5.28;;
48052;SDS011;33824;51.600;5.718;2023-02-28T01:04:14;12.85;;;4.80;;
48052;SDS011;33824;51.600;5.718;2023-02-28T01:06:41;11.93;;;5.03;;
48052;SDS011;33824;51.600;5.718;2023-02-28T01:09:07;15.88;;;5.10;;
48052;SDS011;33824;51.600;5.718;2023-02-28T01:11:33;8.68;;;5.15;;
48052;SDS011;33824;51.600;5.718;2023-02-28T01:14:00;9.50;;;4.63;;
48052;SDS011;33824;51.600;5.718;2023-02-28T01:16:26;11.38;;;5.70;;
48052;SDS011;33824;51.600;5.718;2023-02-28T01:18:52;8.18;;;4.22;;
48052;SDS011;33824;51.600;5.718;2023-02-28T01:21:19;10.75;;;5.43;;
48052;SDS011;33824;51.600;5.718;2023-02-28T01:23:45;10.02;;;5.25;;
48052;SDS011;33824;51.600;5.718;2023-02-28T01:26:18;7.85;;;4.60;;
48052;SDS011;33824;51.600;5.718;2023-02-28T01:28:44;15.38;;;4.68;;
48052;SDS011;33824;51.600;5.718;2023-02-28T01:31:10;10.00;;;4.50;;
48052;SDS011;33824;51.600;5.718;2023-02-28T01:33:36;9.05;;;4.53;;
48052;SDS011;33824;51.600;5.718;2023-02-28T01:36:04;11.18;;;4.43;;
48052;SDS011;33824;51.600;5.718;2023-02-28T01:38:29;7.70;;;4.65;;
48052;SDS011;33824;51.600;5.718;2023-02-28T01:40:55;10.27;;;4.63;;
48052;SDS011;33824;51.600;5.718;2023-02-28T01:43:24;14.75;;;5.38;;
48052;SDS011;33824;51.600;5.718;2023-02-28T01:45:52;9.00;;;5.00;;
48052;SDS011;33824;51.600;5.718;2023-02-28T01:48:20;11.35;;;4.70;;
48052;SDS011;33824;51.600;5.718;2023-02-28T01:50:51;6.95;;;4.15;;
48052;SDS011;33824;51.600;5.718;2023-02-28T01:53:21;11.05;;;4.65;;
48052;SDS011;33824;51.600;5.718;2023-02-28T01:58:18;11.68;;;4.28;;
48052;SDS011;33824;51.600;5.718;2023-02-28T02:00:44;13.75;;;4.88;;
48052;SDS011;33824;51.600;5.718;2023-02-28T02:03:11;11.10;;;4.95;;
48052;SDS011;33824;51.600;5.718;2023-02-28T02:05:39;8.13;;;4.28;;
48052;SDS011;33824;51.600;5.718;2023-02-28T02:08:06;10.55;;;5.18;;
48052;SDS011;33824;51.600;5.718;2023-02-28T02:10:36;16.63;;;5.40;;
48052;SDS011;33824;51.600;5.718;2023-02-28T02:15:58;10.00;;;5.30;;
48052;SDS011;33824;51.600;5.718;2023-02-28T02:18:41;10.32;;;4.40;;
48052;SDS011;33824;51.600;5.718;2023-02-28T02:23:57;8.07;;;4.70;;
48052;SDS011;33824;51.600;5.718;2023-02-28T02:26:45;8.30;;;4.80;;
48052;SDS011;33824;51.600;5.718;2023-02-28T02:37:50;9.43;;;3.67;;
48052;SDS011;33824;51.600;5.718;2023-02-28T02:40:32;7.43;;;4.03;;
48052;SDS011;33824;51.600;5.718;2023-02-28T02:45:45;10.77;;;4.38;;
48052;SDS011;33824;51.600;5.718;2023-02-28T02:48:16;8.75;;;3.80;;
48052;SDS011;33824;51.600;5.718;2023-02-28T02:50:54;13.13;;;5.40;;
48052;SDS011;33824;51.600;5.718;2023-02-28T02:53:24;8.23;;;4.00;;
48052;SDS011;33824;51.600;5.718;2023-02-28T02:55:55;11.05;;;3.70;;
48052;SDS011;33824;51.600;5.718;2023-02-28T02:58:24;8.27;;;4.50;;
48052;SDS011;33824;51.600;5.718;2023-02-28T03:00:56;9.88;;;4.80;;
48052;SDS011;33824;51.600;5.718;2023-02-28T03:03:25;9.38;;;4.28;;
48052;SDS011;33824;51.600;5.718;2023-02-28T03:05:56;8.80;;;3.72;;
48052;SDS011;33824;51.600;5.718;2023-02-28T03:08:23;8.30;;;3.75;;
48052;SDS011;33824;51.600;5.718;2023-02-28T03:10:50;6.65;;;4.28;;
48052;SDS011;33824;51.600;5.718;2023-02-28T03:24:30;9.07;;;3.83;;
48052;SDS011;33824;51.600;5.718;2023-02-28T03:27:09;9.35;;;4.15;;
48052;SDS011;33824;51.600;5.718;2023-02-28T03:29:42;9.00;;;3.78;;
48052;SDS011;33824;51.600;5.718;2023-02-28T03:32:14;8.40;;;3.65;;
48052;SDS011;33824;51.600;5.718;2023-02-28T03:34:56;9.13;;;3.67;;
48052;SDS011;33824;51.600;5.718;2023-02-28T03:37:23;9.10;;;4.03;;
48052;SDS011;33824;51.600;5.718;2023-02-28T03:39:59;9.25;;;4.15;;
48052;SDS011;33824;51.600;5.718;2023-02-28T03:42:31;11.32;;;3.40;;
48052;SDS011;33824;51.600;5.718;2023-02-28T03:45:16;6.95;;;3.67;;
48052;SDS011;33824;51.600;5.718;2023-02-28T03:47:55;9.05;;;4.03;;
48052;SDS011;33824;51.600;5.718;2023-02-28T03:50:31;6.68;;;3.80;;
48052;SDS011;33824;51.600;5.718;2023-02-28T03:53:07;11.38;;;3.63;;
48052;SDS011;33824;51.600;5.718;2023-02-28T03:55:42;12.63;;;4.30;;
48052;SDS011;33824;51.600;5.718;2023-02-28T04:00:55;9.02;;;3.45;;
48052;SDS011;33824;51.600;5.718;2023-02-28T04:03:36;7.88;;;3.65;;
48052;SDS011;33824;51.600;5.718;2023-02-28T04:06:03;7.22;;;3.28;;
48052;SDS011;33824;51.600;5.718;2023-02-28T04:08:30;9.93;;;3.78;;
48052;SDS011;33824;51.600;5.718;2023-02-28T04:10:58;7.13;;;3.72;;
48052;SDS011;33824;51.600;5.718;2023-02-28T04:15:53;7.18;;;3.25;;
48052;SDS011;33824;51.600;5.718;2023-02-28T04:18:22;7.32;;;3.40;;
48052;SDS011;33824;51.600;5.718;2023-02-28T04:20:48;4.90;;;3.15;;
48052;SDS011;33824;51.600;5.718;2023-02-28T04:23:13;9.27;;;3.42;;
48052;SDS011;33824;51.600;5.718;2023-02-28T04:25:39;5.75;;;3.10;;
48052;SDS011;33824;51.600;5.718;2023-02-28T04:28:05;7.95;;;3.45;;
48052;SDS011;33824;51.600;5.718;2023-02-28T04:30:31;6.20;;;2.90;;
48052;SDS011;33824;51.600;5.718;2023-02-28T04:32:58;10.52;;;3.78;;
48052;SDS011;33824;51.600;5.718;2023-02-28T04:35:24;6.80;;;3.05;;
48052;SDS011;33824;51.600;5.718;2023-02-28T04:37:50;8.90;;;3.60;;
48052;SDS011;33824;51.600;5.718;2023-02-28T04:40:15;7.47;;;3.67;;
48052;SDS011;33824;51.600;5.718;2023-02-28T04:42:41;10.30;;;4.22;;
48052;SDS011;33824;51.600;5.718;2023-02-28T04:45:07;5.53;;;2.78;;
48052;SDS011;33824;51.600;5.718;2023-02-28T04:47:35;8.20;;;3.83;;
48052;SDS011;33824;51.600;5.718;2023-02-28T04:50:01;8.90;;;3.50;;
48052;SDS011;33824;51.600;5.718;2023-02-28T04:52:28;9.43;;;4.13;;
48052;SDS011;33824;51.600;5.718;2023-02-28T04:54:54;6.82;;;3.88;;
48052;SDS011;33824;51.600;5.718;2023-02-28T04:57:20;7.60;;;3.78;;
48052;SDS011;33824;51.600;5.718;2023-02-28T04:59:45;8.18;;;3.58;;
48052;SDS011;33824;51.600;5.718;2023-02-28T05:02:11;8.05;;;3.60;;
48052;SDS011;33824;51.600;5.718;2023-02-28T05:04:36;5.45;;;3.22;;
48052;SDS011;33824;51.600;5.718;2023-02-28T05:07:02;6.25;;;2.80;;
48052;SDS011;33824;51.600;5.718;2023-02-28T05:09:28;7.22;;;2.92;;
48052;SDS011;33824;51.600;5.718;2023-02-28T05:11:54;11.63;;;3.33;;
48052;SDS011;33824;51.600;5.718;2023-02-28T05:14:21;8.02;;;2.63;;
48052;SDS011;33824;51.600;5.718;2023-02-28T05:16:46;5.68;;;2.88;;
48052;SDS011;33824;51.600;5.718;2023-02-28T05:19:12;11.70;;;2.88;;
48052;SDS011;33824;51.600;5.718;2023-02-28T05:21:38;10.23;;;2.80;;
48052;SDS011;33824;51.600;5.718;2023-02-28T05:24:06;8.40;;;2.58;;
48052;SDS011;33824;51.600;5.718;2023-02-28T05:26:35;6.45;;;2.55;;
48052;SDS011;33824;51.600;5.718;2023-02-28T05:29:02;5.20;;;2.47;;
48052;SDS011;33824;51.600;5.718;2023-02-28T05:31:28;5.82;;;2.88;;
48052;SDS011;33824;51.600;5.718;2023-02-28T05:33:54;5.78;;;2.60;;
48052;SDS011;33824;51.600;5.718;2023-02-28T05:36:20;7.55;;;2.92;;
48052;SDS011;33824;51.600;5.718;2023-02-28T05:38:46;8.05;;;2.60;;
48052;SDS011;33824;51.600;5.718;2023-02-28T05:41:13;7.55;;;2.60;;
48052;SDS011;33824;51.600;5.718;2023-02-28T05:43:39;5.72;;;3.05;;
48052;SDS011;33824;51.600;5.718;2023-02-28T05:46:05;6.60;;;2.80;;
48052;SDS011;33824;51.600;5.718;2023-02-28T05:48:32;7.85;;;2.80;;
48052;SDS011;33824;51.600;5.718;2023-02-28T05:50:58;4.05;;;2.42;;
48052;SDS011;33824;51.600;5.718;2023-02-28T05:53:24;4.47;;;2.60;;
48052;SDS011;33824;51.600;5.718;2023-02-28T05:55:49;5.72;;;2.42;;
48052;SDS011;33824;51.600;5.718;2023-02-28T05:58:15;4.25;;;2.08;;
48052;SDS011;33824;51.600;5.718;2023-02-28T06:00:40;9.38;;;2.90;;
48052;SDS011;33824;51.600;5.718;2023-02-28T06:03:06;4.00;;;2.53;;
48052;SDS011;33824;51.600;5.718;2023-02-28T06:05:31;7.90;;;2.67;;
48052;SDS011;33824;51.600;5.718;2023-02-28T06:07:58;8.63;;;2.95;;
48052;SDS011;33824;51.600;5.718;2023-02-28T06:10:23;7.43;;;3.13;;
48052;SDS011;33824;51.600;5.718;2023-02-28T06:12:49;6.50;;;3.08;;
48052;SDS011;33824;51.600;5.718;2023-02-28T06:15:15;9.38;;;2.95;;
48052;SDS011;33824;51.600;5.718;2023-02-28T06:17:42;7.13;;;2.50;;
48052;SDS011;33824;51.600;5.718;2023-02-28T06:20:09;9.05;;;2.78;;
48052;SDS011;33824;51.600;5.718;2023-02-28T06:22:38;6.07;;;2.80;;
48052;SDS011;33824;51.600;5.718;2023-02-28T06:25:05;5.30;;;2.47;;
48052;SDS011;33824;51.600;5.718;2023-02-28T06:27:32;13.07;;;3.75;;
48052;SDS011;33824;51.600;5.718;2023-02-28T06:29:58;6.13;;;3.10;;
48052;SDS011;33824;51.600;5.718;2023-02-28T06:32:24;4.57;;;2.80;;
48052;SDS011;33824;51.600;5.718;2023-02-28T06:34:50;5.00;;;2.63;;
48052;SDS011;33824;51.600;5.718;2023-02-28T06:37:16;7.93;;;3.35;;
48052;SDS011;33824;51.600;5.718;2023-02-28T06:39:42;5.97;;;2.53;;
48052;SDS011;33824;51.600;5.718;2023-02-28T06:42:08;5.53;;;3.00;;
48052;SDS011;33824;51.600;5.718;2023-02-28T06:44:33;5.78;;;2.67;;
48052;SDS011;33824;51.600;5.718;2023-02-28T06:47:04;8.18;;;2.90;;
48052;SDS011;33824;51.600;5.718;2023-02-28T06:49:31;18.40;;;4.55;;
48052;SDS011;33824;51.600;5.718;2023-02-28T06:51:57;11.90;;;3.10;;
48052;SDS011;33824;51.600;5.718;2023-02-28T06:54:23;5.43;;;2.47;;
48052;SDS011;33824;51.600;5.718;2023-02-28T06:56:49;8.32;;;3.47;;
48052;SDS011;33824;51.600;5.718;2023-02-28T06:59:15;7.60;;;3.53;;
48052;SDS011;33824;51.600;5.718;2023-02-28T07:01:42;8.25;;;3.10;;
48052;SDS011;33824;51.600;5.718;2023-02-28T07:04:07;9.30;;;3.10;;
48052;SDS011;33824;51.600;5.718;2023-02-28T07:06:33;6.68;;;2.65;;
48052;SDS011;33824;51.600;5.718;2023-02-28T07:08:59;5.82;;;3.15;;
48052;SDS011;33824;51.600;5.718;2023-02-28T07:11:25;5.72;;;3.22;;
48052;SDS011;33824;51.600;5.718;2023-02-28T07:13:53;8.85;;;3.22;;
48052;SDS011;33824;51.600;5.718;2023-02-28T07:16:19;8.57;;;3.30;;
48052;SDS011;33824;51.600;5.718;2023-02-28T07:18:47;6.68;;;3.63;;
48052;SDS011;33824;51.600;5.718;2023-02-28T07:21:13;10.25;;;3.10;;
48052;SDS011;33824;51.600;5.718;2023-02-28T07:23:39;7.35;;;3.40;;
48052;SDS011;33824;51.600;5.718;2023-02-28T07:26:06;9.70;;;3.70;;
48052;SDS011;33824;51.600;5.718;2023-02-28T07:28:32;10.38;;;3.75;;
48052;SDS011;33824;51.600;5.718;2023-02-28T07:31:02;6.38;;;3.08;;
48052;SDS011;33824;51.600;5.718;2023-02-28T07:33:29;11.45;;;3.13;;
48052;SDS011;33824;51.600;5.718;2023-02-28T07:35:59;4.90;;;2.50;;
48052;SDS011;33824;51.600;5.718;2023-02-28T07:38:26;6.20;;;2.30;;
48052;SDS011;33824;51.600;5.718;2023-02-28T07:40:52;5.78;;;2.90;;
48052;SDS011;33824;51.600;5.718;2023-02-28T07:43:17;5.22;;;2.50;;
48052;SDS011;33824;51.600;5.718;2023-02-28T07:45:43;7.68;;;3.33;;
48052;SDS011;33824;51.600;5.718;2023-02-28T07:48:08;7.38;;;3.13;;
48052;SDS011;33824;51.600;5.718;2023-02-28T07:50:35;9.55;;;3.15;;
48052;SDS011;33824;51.600;5.718;2023-02-28T07:53:00;9.75;;;3.83;;
48052;SDS011;33824;51.600;5.718;2023-02-28T07:55:26;6.32;;;3.00;;
48052;SDS011;33824;51.600;5.718;2023-02-28T07:57:51;12.82;;;3.42;;
48052;SDS011;33824;51.600;5.718;2023-02-28T08:00:17;5.25;;;3.05;;
48052;SDS011;33824;51.600;5.718;2023-02-28T08:02:43;4.75;;;2.75;;
48052;SDS011;33824;51.600;5.718;2023-02-28T08:05:09;6.18;;;3.00;;
48052;SDS011;33824;51.600;5.718;2023-02-28T08:07:34;6.07;;;2.50;;
48052;SDS011;33824;51.600;5.718;2023-02-28T08:10:00;4.60;;;2.58;;
48052;SDS011;33824;51.600;5.718;2023-02-28T08:12:25;10.60;;;2.72;;
48052;SDS011;33824;51.600;5.718;2023-02-28T08:14:51;2.85;;;1.83;;
48052;SDS011;33824;51.600;5.718;2023-02-28T08:17:17;6.00;;;2.30;;
48052;SDS011;33824;51.600;5.718;2023-02-28T08:19:45;7.45;;;1.88;;
48052;SDS011;33824;51.600;5.718;2023-02-28T08:22:11;3.03;;;1.50;;
48052;SDS011;33824;51.600;5.718;2023-02-28T08:24:36;2.90;;;1.55;;
48052;SDS011;33824;51.600;5.718;2023-02-28T08:27:02;4.15;;;1.63;;
48052;SDS011;33824;51.600;5.718;2023-02-28T08:29:27;3.30;;;1.30;;
48052;SDS011;33824;51.600;5.718;2023-02-28T08:31:55;3.47;;;1.83;;
48052;SDS011;33824;51.600;5.718;2023-02-28T08:34:20;4.82;;;1.60;;
48052;SDS011;33824;51.600;5.718;2023-02-28T08:36:46;2.83;;;1.77;;
48052;SDS011;33824;51.600;5.718;2023-02-28T08:39:12;2.22;;;1.42;;
48052;SDS011;33824;51.600;5.718;2023-02-28T08:41:38;1.50;;;1.05;;
48052;SDS011;33824;51.600;5.718;2023-02-28T08:44:03;6.32;;;1.27;;
48052;SDS011;33824;51.600;5.718;2023-02-28T08:46:29;2.50;;;1.30;;
48052;SDS011;33824;51.600;5.718;2023-02-28T08:48:55;3.83;;;1.70;;
48052;SDS011;33824;51.600;5.718;2023-02-28T08:51:25;3.08;;;1.52;;
48052;SDS011;33824;51.600;5.718;2023-02-28T08:53:52;9.57;;;1.70;;
48052;SDS011;33824;51.600;5.718;2023-02-28T08:56:18;1.83;;;1.33;;
48052;SDS011;33824;51.600;5.718;2023-02-28T08:58:44;4.70;;;1.38;;
48052;SDS011;33824;51.600;5.718;2023-02-28T09:03:39;3.38;;;1.55;;
48052;SDS011;33824;51.600;5.718;2023-02-28T09:06:07;4.40;;;1.45;;
48052;SDS011;33824;51.600;5.718;2023-02-28T09:08:34;7.18;;;1.60;;
48052;SDS011;33824;51.600;5.718;2023-02-28T09:10:59;2.40;;;1.33;;
48052;SDS011;33824;51.600;5.718;2023-02-28T09:13:26;1.80;;;1.30;;
48052;SDS011;33824;51.600;5.718;2023-02-28T09:16:14;4.45;;;1.70;;
48052;SDS011;33824;51.600;5.718;2023-02-28T09:18:41;7.00;;;2.17;;
48052;SDS011;33824;51.600;5.718;2023-02-28T09:21:08;2.58;;;1.50;;
48052;SDS011;33824;51.600;5.718;2023-02-28T09:23:38;2.97;;;1.50;;
48052;SDS011;33824;51.600;5.718;2023-02-28T09:26:04;3.63;;;1.63;;
48052;SDS011;33824;51.600;5.718;2023-02-28T09:28:30;3.92;;;1.88;;
48052;SDS011;33824;51.600;5.718;2023-02-28T09:30:56;5.85;;;1.60;;
48052;SDS011;33824;51.600;5.718;2023-02-28T09:33:24;2.50;;;1.20;;
48052;SDS011;33824;51.600;5.718;2023-02-28T09:35:50;2.13;;;1.23;;
48052;SDS011;33824;51.600;5.718;2023-02-28T09:38:17;2.47;;;1.40;;
48052;SDS011;33824;51.600;5.718;2023-02-28T09:40:50;2.67;;;1.45;;
48052;SDS011;33824;51.600;5.718;2023-02-28T09:43:20;2.17;;;1.20;;
48052;SDS011;33824;51.600;5.718;2023-02-28T09:45:49;3.28;;;1.40;;
48052;SDS011;33824;51.600;5.718;2023-02-28T09:48:25;3.40;;;1.20;;
48052;SDS011;33824;51.600;5.718;2023-02-28T09:51:00;1.60;;;1.10;;
48052;SDS011;33824;51.600;5.718;2023-02-28T09:53:30;3.78;;;1.33;;
48052;SDS011;33824;51.600;5.718;2023-02-28T09:56:21;3.78;;;0.85;;
48052;SDS011;33824;51.600;5.718;2023-02-28T10:04:42;2.05;;;1.20;;
48052;SDS011;33824;51.600;5.718;2023-02-28T10:08:19;4.78;;;0.90;;
48052;SDS011;33824;51.600;5.718;2023-02-28T10:13:04;1.20;;;0.70;;
48052;SDS011;33824;51.600;5.718;2023-02-28T10:15:38;2.00;;;0.93;;
48052;SDS011;33824;51.600;5.718;2023-02-28T10:18:05;1.40;;;1.00;;
48052;SDS011;33824;51.600;5.718;2023-02-28T10:20:37;4.05;;;1.55;;
48052;SDS011;33824;51.600;5.718;2023-02-28T10:23:24;3.40;;;0.90;;
48052;SDS011;33824;51.600;5.718;2023-02-28T10:26:26;1.55;;;0.82;;
48052;SDS011;33824;51.600;5.718;2023-02-28T10:28:45;2.22;;;1.08;;
48052;SDS011;33824;51.600;5.718;2023-02-28T10:33:41;4.28;;;1.08;;
48052;SDS011;33824;51.600;5.718;2023-02-28T10:36:08;1.30;;;0.80;;
48052;SDS011;33824;51.600;5.718;2023-02-28T10:43:40;2.15;;;0.90;;
48052;SDS011;33824;51.600;5.718;2023-02-28T10:48:38;2.40;;;1.02;;
48052;SDS011;33824;51.600;5.718;2023-02-28T10:51:08;2.00;;;0.93;;
48052;SDS011;33824;51.600;5.718;2023-02-28T11:01:42;1.55;;;1.05;;
48052;SDS011;33824;51.600;5.718;2023-02-28T11:06:58;1.92;;;0.90;;
48052;SDS011;33824;51.600;5.718;2023-02-28T11:09:37;1.65;;;1.10;;
48052;SDS011;33824;51.600;5.718;2023-02-28T11:12:08;1.60;;;0.93;;
48052;SDS011;33824;51.600;5.718;2023-02-28T11:14:47;2.17;;;0.88;;
48052;SDS011;33824;51.600;5.718;2023-02-28T11:17:23;3.42;;;1.75;;
48052;SDS011;33824;51.600;5.718;2023-02-28T11:19:52;2.90;;;1.33;;
48052;SDS011;33824;51.600;5.718;2023-02-28T11:22:20;3.33;;;1.00;;
48052;SDS011;33824;51.600;5.718;2023-02-28T11:24:49;2.65;;;1.20;;
48052;SDS011;33824;51.600;5.718;2023-02-28T11:27:52;1.58;;;1.00;;
48052;SDS011;33824;51.600;5.718;2023-02-28T11:30:24;2.92;;;1.10;;
48052;SDS011;33824;51.600;5.718;2023-02-28T11:32:59;2.58;;;1.20;;
48052;SDS011;33824;51.600;5.718;2023-02-28T11:35:38;4.82;;;1.20;;
48052;SDS011;33824;51.600;5.718;2023-02-28T11:38:07;5.82;;;1.10;;
48052;SDS011;33824;51.600;5.718;2023-02-28T11:40:49;2.42;;;1.40;;
48052;SDS011;33824;51.600;5.718;2023-02-28T11:49:06;1.25;;;0.80;;
48052;SDS011;33824;51.600;5.718;2023-02-28T11:51:57;1.75;;;1.10;;
48052;SDS011;33824;51.600;5.718;2023-02-28T11:54:32;1.80;;;1.40;;
48052;SDS011;33824;51.600;5.718;2023-02-28T11:59:51;2.38;;;1.20;;
48052;SDS011;33824;51.600;5.718;2023-02-28T12:02:45;4.70;;;1.10;;
48052;SDS011;33824;51.600;5.718;2023-02-28T12:05:34;4.40;;;1.02;;
48052;SDS011;33824;51.600;5.718;2023-02-28T12:19:37;2.80;;;1.17;;
48052;SDS011;33824;51.600;5.718;2023-02-28T12:22:30;3.78;;;1.25;;
48052;SDS011;33824;51.600;5.718;2023-02-28T12:27:46;1.25;;;0.98;;
48052;SDS011;33824;51.600;5.718;2023-02-28T12:30:17;4.80;;;1.65;;
48052;SDS011;33824;51.600;5.718;2023-02-28T12:32:52;2.90;;;1.45;;
48052;SDS011;33824;51.600;5.718;2023-02-28T12:35:24;4.30;;;1.35;;
48052;SDS011;33824;51.600;5.718;2023-02-28T12:38:02;4.43;;;1.40;;
48052;SDS011;33824;51.600;5.718;2023-02-28T12:40:49;2.17;;;1.67;;
48052;SDS011;33824;51.600;5.718;2023-02-28T12:43:19;1.38;;;1.08;;
48052;SDS011;33824;51.600;5.718;2023-02-28T12:45:55;2.58;;;1.10;;
48052;SDS011;33824;51.600;5.718;2023-02-28T12:48:31;2.22;;;1.10;;
48052;SDS011;33824;51.600;5.718;2023-02-28T12:51:05;2.17;;;1.45;;
48052;SDS011;33824;51.600;5.718;2023-02-28T12:53:38;3.17;;;1.17;;
48052;SDS011;33824;51.600;5.718;2023-02-28T12:58:56;1.85;;;1.10;;
48052;SDS011;33824;51.600;5.718;2023-02-28T13:09:51;6.57;;;1.23;;
48052;SDS011;33824;51.600;5.718;2023-02-28T13:12:19;3.20;;;1.00;;
48052;SDS011;33824;51.600;5.718;2023-02-28T13:14:46;2.05;;;1.02;;
48052;SDS011;33824;51.600;5.718;2023-02-28T13:17:12;4.10;;;1.80;;
48052;SDS011;33824;51.600;5.718;2023-02-28T13:19:45;2.70;;;1.42;;
48052;SDS011;33824;51.600;5.718;2023-02-28T13:22:36;4.22;;;1.70;;
48052;SDS011;33824;51.600;5.718;2023-02-28T13:26:04;1.75;;;1.13;;
48052;SDS011;33824;51.600;5.718;2023-02-28T13:27:59;3.38;;;1.70;;
48052;SDS011;33824;51.600;5.718;2023-02-28T13:33:26;2.67;;;1.27;;
48052;SDS011;33824;51.600;5.718;2023-02-28T13:38:42;1.85;;;1.25;;
48052;SDS011;33824;51.600;5.718;2023-02-28T13:44:07;2.13;;;1.23;;
48052;SDS011;33824;51.600;5.718;2023-02-28T13:52:17;5.85;;;1.50;;
48052;SDS011;33824;51.600;5.718;2023-02-28T13:57:32;5.10;;;1.50;;
48052;SDS011;33824;51.600;5.718;2023-02-28T14:05:41;1.95;;;1.15;;
48052;SDS011;33824;51.600;5.718;2023-02-28T14:08:15;2.60;;;0.80;;
48052;SDS011;33824;51.600;5.718;2023-02-28T14:10:48;3.40;;;1.45;;
48052;SDS011;33824;51.600;5.718;2023-02-28T14:15:55;6.18;;;1.50;;
48052;SDS011;33824;51.600;5.718;2023-02-28T14:18:32;3.65;;;1.30;;
48052;SDS011;33824;51.600;5.718;2023-02-28T14:21:08;1.58;;;1.23;;
48052;SDS011;33824;51.600;5.718;2023-02-28T14:23:43;6.30;;;1.92;;
48052;SDS011;33824;51.600;5.718;2023-02-28T14:26:43;3.63;;;1.50;;
48052;SDS011;33824;51.600;5.718;2023-02-28T14:32:28;8.65;;;1.45;;
48052;SDS011;33824;51.600;5.718;2023-02-28T14:38:06;2.83;;;1.40;;
48052;SDS011;33824;51.600;5.718;2023-02-28T14:40:54;2.42;;;1.42;;
48052;SDS011;33824;51.600;5.718;2023-02-28T14:43:23;3.20;;;1.30;;
48052;SDS011;33824;51.600;5.718;2023-02-28T14:45:51;2.65;;;1.33;;
48052;SDS011;33824;51.600;5.718;2023-02-28T14:48:22;1.77;;;1.13;;
48052;SDS011;33824;51.600;5.718;2023-02-28T14:50:51;2.58;;;1.30;;
48052;SDS011;33824;51.600;5.718;2023-02-28T14:53:20;3.75;;;1.33;;
48052;SDS011;33824;51.600;5.718;2023-02-28T14:55:48;8.52;;;1.80;;
48052;SDS011;33824;51.600;5.718;2023-02-28T14:58:25;4.85;;;1.15;;
48052;SDS011;33824;51.600;5.718;2023-02-28T15:00:51;4.15;;;1.38;;
48052;SDS011;33824;51.600;5.718;2023-02-28T15:03:20;5.32;;;1.50;;
48052;SDS011;33824;51.600;5.718;2023-02-28T15:06:00;2.17;;;1.20;;
48052;SDS011;33824;51.600;5.718;2023-02-28T15:08:28;2.22;;;1.30;;
48052;SDS011;33824;51.600;5.718;2023-02-28T15:11:02;3.05;;;1.52;;
48052;SDS011;33824;51.600;5.718;2023-02-28T15:13:40;3.37;;;1.50;;
48052;SDS011;33824;51.600;5.718;2023-02-28T15:16:25;3.22;;;1.58;;
48052;SDS011;33824;51.600;5.718;2023-02-28T15:18:58;3.92;;;1.80;;
48052;SDS011;33824;51.600;5.718;2023-02-28T15:21:25;2.38;;;1.40;;
48052;SDS011;33824;51.600;5.718;2023-02-28T15:24:03;2.45;;;1.02;;
48052;SDS011;33824;51.600;5.718;2023-02-28T15:26:43;3.58;;;1.52;;
48052;SDS011;33824;51.600;5.718;2023-02-28T15:29:15;3.38;;;1.58;;
48052;SDS011;33824;51.600;5.718;2023-02-28T15:31:45;4.15;;;1.80;;
48052;SDS011;33824;51.600;5.718;2023-02-28T15:34:20;5.90;;;1.73;;
48052;SDS011;33824;51.600;5.718;2023-02-28T15:36:51;2.58;;;1.90;;
48052;SDS011;33824;51.600;5.718;2023-02-28T15:39:24;2.53;;;1.80;;
48052;SDS011;33824;51.600;5.718;2023-02-28T15:42:09;3.15;;;1.58;;
48052;SDS011;33824;51.600;5.718;2023-02-28T15:44:42;2.40;;;1.75;;
48052;SDS011;33824;51.600;5.718;2023-02-28T15:47:16;2.85;;;1.40;;
48052;SDS011;33824;51.600;5.718;2023-02-28T15:49:45;4.32;;;1.83;;
48052;SDS011;33824;51.600;5.718;2023-02-28T15:52:20;2.45;;;1.40;;
48052;SDS011;33824;51.600;5.718;2023-02-28T15:54:49;6.25;;;1.58;;
48052;SDS011;33824;51.600;5.718;2023-02-28T15:57:26;4.57;;;1.70;;
48052;SDS011;33824;51.600;5.718;2023-02-28T15:59:59;4.20;;;1.55;;
48052;SDS011;33824;51.600;5.718;2023-02-28T16:07:34;2.83;;;1.60;;
48052;SDS011;33824;51.600;5.718;2023-02-28T16:10:07;1.85;;;1.40;;
48052;SDS011;33824;51.600;5.718;2023-02-28T16:12:38;2.50;;;1.35;;
48052;SDS011;33824;51.600;5.718;2023-02-28T16:15:08;4.82;;;1.60;;
48052;SDS011;33824;51.600;5.718;2023-02-28T16:17:45;5.27;;;1.30;;
48052;SDS011;33824;51.600;5.718;2023-02-28T16:20:12;3.50;;;1.08;;
48052;SDS011;33824;51.600;5.718;2023-02-28T16:22:40;2.35;;;1.38;;
48052;SDS011;33824;51.600;5.718;2023-02-28T16:25:08;2.08;;;1.63;;
48052;SDS011;33824;51.600;5.718;2023-02-28T16:27:37;6.15;;;1.80;;
48052;SDS011;33824;51.600;5.718;2023-02-28T16:30:04;3.83;;;1.40;;
48052;SDS011;33824;51.600;5.718;2023-02-28T16:32:51;4.00;;;1.63;;
48052;SDS011;33824;51.600;5.718;2023-02-28T16:35:19;5.38;;;1.33;;
48052;SDS011;33824;51.600;5.718;2023-02-28T16:37:46;6.00;;;1.88;;
48052;SDS011;33824;51.600;5.718;2023-02-28T16:40:18;5.82;;;1.40;;
48052;SDS011;33824;51.600;5.718;2023-02-28T16:42:46;4.57;;;1.88;;
48052;SDS011;33824;51.600;5.718;2023-02-28T16:45:18;2.60;;;1.30;;
48052;SDS011;33824;51.600;5.718;2023-02-28T16:47:47;3.30;;;1.70;;
48052;SDS011;33824;51.600;5.718;2023-02-28T16:50:15;3.53;;;1.55;;
48052;SDS011;33824;51.600;5.718;2023-02-28T16:52:48;2.80;;;1.38;;
48052;SDS011;33824;51.600;5.718;2023-02-28T16:55:14;4.10;;;1.70;;
48052;SDS011;33824;51.600;5.718;2023-02-28T16:57:40;4.45;;;1.80;;
48052;SDS011;33824;51.600;5.718;2023-02-28T17:00:10;2.47;;;1.77;;
48052;SDS011;33824;51.600;5.718;2023-02-28T17:02:38;4.70;;;1.70;;
48052;SDS011;33824;51.600;5.718;2023-02-28T17:05:04;3.10;;;1.52;;
48052;SDS011;33824;51.600;5.718;2023-02-28T17:07:30;2.47;;;1.70;;
48052;SDS011;33824;51.600;5.718;2023-02-28T17:09:55;2.70;;;1.60;;
48052;SDS011;33824;51.600;5.718;2023-02-28T17:12:21;4.38;;;1.60;;
48052;SDS011;33824;51.600;5.718;2023-02-28T17:14:46;6.78;;;1.92;;
48052;SDS011;33824;51.600;5.718;2023-02-28T17:17:19;3.15;;;1.70;;
48052;SDS011;33824;51.600;5.718;2023-02-28T17:19:46;4.53;;;1.67;;